Etusivu
METAR-TAF:

METAR-TAF

Lentoasemat :

Monastir, Tunisia

Leveyspiiri: 35-46N, Pituuspiiri: 010-45E, korkeus merenpinnasta: 2 m

Tämänhetkinen sää

Tämä raportti tehtiin 35 minuuttia sitten, kello 22.00 UTC
Tuuli 6 kn etelästä
Lämpötila 22°C
Kosteus 83%
Ilmanpaine 1016 hPa
Näkyvyys 10 km tai enemmän
Hajanaisia pilviä 2600 ft:n korkeudessa
Hajanaisia pilviä 4000 ft:n korkeudessa

METAR: DTMB 072200Z 17006KT 9999 SCT026 SCT040 22/19 Q1016

Aika: 23:35 (22:35 UTC)

Sääennuste

Tämä raportti tehtiin 5 tuntia ja 35 minuuttia sitten, kello 17.00 UTC
Ennuste voimassa 07. päivästä klo 18 UTC - 08. päivään klo 18 UTC
Tuuli 12 kn idästä/kaakosta
Näkyvyys 10 km tai enemmän
ei pilviä alle 1500 m:ssä eikä cumulonimbus-pilviä
Tulossa
07. päivästä klo 22 UTC - 07. päivään klo 24 UTC
Tuuli 4 kn etelästä
Tulossa
08. päivästä klo 13 UTC - 08. päivään klo 15 UTC
Tuuli 12 kn kaakosta

TAF: DTMB 071700Z 0718/0818 12012KT CAVOK BECMG 0722/0724 18004KT BECMG 0813/0815 14012KT

Säähavainnot ja -ennusteet yli 4000 lentoasemalta (METAR- ja TAF-raportit).

Käytössä olevat sääasemat on merkitty karttaan keltaisilla ja punaisilla pisteillä.

Aseta hiiri pisteen päälle nähdäksesi sääaseman nimen.

Klikkaa sitten nähdäksesi säähavainnot ja -ennusteet.

Kartan vaihtaminen: klikkaa mustalla rastilla varustettuja vihreitä pisteitä, niin voit zoomata sisään; viivalla varustettua vihreää pistettä, niin voit zoomata ulos tai vihreitä nuolia, niin pääset viereisille kartoille.


METAR-TAF: